x

Sheboygan, Wi (sgnw3) Weather Station

1:00pm - Wed 20th Sep 2017 All times are CDT. -5 hours from GMT.

  • Wind
    20mph, 21mph gusts
  • Air Temp 66°f
  • Sea Pressure 1012.3mb
  • Sheboygan, Wi
  • Sheboygan, Wi

More Historic Weather Station data

Upgrade to MSW Pro to gain access to the past 30 days of data for over 8000 Wavebouys and Weather Stations around the globe.

Join

Comparision Forecast

View Surf forecast
   
Wed 09/20 1:00pm 20 21 mph 1012.3mb 66f
12:00pm 20 22 mph 1012.8mb 66f
11:00am 16 17 mph 1013mb 66f
10:00am 15 16 mph 1012.6mb 65f
9:00am 18 20 mph 1012.4mb 66f
8:00am 17 17 mph 1012.6mb 65f
7:00am 16 17 mph 1012.7mb 65f
6:00am 16 16 mph 1012.5mb 66f
5:00am 7 8 mph 1012.9mb 65f
4:00am 9 10 mph 1013.4mb 66f
3:00am 8 9 mph 1013.1mb 66f
2:00am 13 14 mph 1012.8mb 66f
1:00am 14 15 mph 1012.4mb 67f
12:00am 11 11 mph 1013.2mb 66f
Tue 09/19 11:00pm 11 13 mph 1013.3mb 66f
10:00pm 10 10 mph 1013.6mb 66f
9:00pm 7 7 mph 1013.8mb 66f
8:00pm 8 8 mph 1013.6mb 65f
7:00pm 6 6 mph 1013.4mb 65f
6:00pm 3 3 mph 1013.6mb 65f
5:00pm 7 7 mph 1013.9mb 65f
4:00pm 9 9 mph 1014.3mb 65f
3:00pm 7 8 mph 1014.9mb 65f
2:00pm 9 9 mph 1015.1mb 65f
1:00pm 6 6 mph 1015.6mb 65f
12:00pm 6 7 mph 1015.8mb 65f
6:00am 3 5 mph 1015mb 63f
5:00am 6 7 mph 1015mb 63f
4:00am 6 8 mph 1014.8mb 64f
3:00am 7 8 mph 1015mb 61f
2:00am 8 9 mph 1015.7mb 62f
1:00am 7 8 mph 1015.4mb 61f
12:00am 3 3 mph 1015.4mb 61f
Mon 09/18 11:00pm 5 5 mph 1016.5mb 60f
10:00pm 9 9 mph 1016.8mb 64f
9:00pm 11 11 mph 1017.2mb 64f
8:00pm 16 16 mph 1017.1mb 64f
7:00pm 15 17 mph 1017.1mb 64f
6:00pm 13 14 mph 1017.4mb 63f
5:00pm 10 11 mph 1018.1mb 63f
4:00pm 9 10 mph 1018.4mb 63f
3:00pm 8 9 mph 1019mb 63f
2:00pm 11 14 mph 1019.3mb 63f
1:00pm 13 14 mph 1019.7mb 62f
12:00pm 13 14 mph 1020.6mb 62f
11:00am 11 13 mph 1021.1mb 62f
10:00am 13 13 mph 1020.9mb 63f
9:00am 14 16 mph 1020.6mb 63f
8:00am 16 17 mph 1020.5mb 62f
7:00am 18 20 mph 1019.9mb 63f
6:00am 10 11 mph 1019.8mb 56f
5:00am 7 8 mph 1019.4mb 55f
4:00am 10 11 mph 1019.2mb 56f
3:00am 13 14 mph 1019mb 58f
2:00am 15 20 mph 1019mb 59f
1:00am 13 15 mph 1019.4mb 59f
12:00am 13 15 mph 1019.2mb 60f
Sun 09/17 11:00pm 9 10 mph 1019.6mb 61f
10:00pm 5 6 mph 1019.4mb 62f
9:00pm 6 8 mph 1019.1mb 64f
8:00pm 6 8 mph 1018.3mb 65f
7:00pm 7 9 mph 1017.9mb 66f
6:00pm 14 15 mph 1017.6mb 67f
5:00pm 13 15 mph 1017.2mb 68f
4:00pm 13 16 mph 1016.9mb 70f
3:00pm 13 15 mph 1016.8mb 71f
2:00pm 13 16 mph 1016.7mb 73f
1:00pm 20 21 mph 1016.5mb 73f
12:00pm 16 22 mph 1016.3mb 74f
11:00am 11 13 mph 1015.9mb 74f
10:00am 11 14 mph 1015.8mb 74f
9:00am 7 8 mph 1015.4mb 69f
8:00am 6 7 mph 1015.9mb 68f
7:00am 8 8 mph 1015.8mb 67f
6:00am 9 9 mph 1015.1mb 67f
5:00am 14 15 mph 1014.8mb 66f
4:00am 18 18 mph 1014.7mb 68f
3:00am 13 14 mph 1014.9mb 67f
2:00am 16 16 mph 1015.1mb 67f
1:00am 15 15 mph 1015.7mb 68f
12:00am 17 18 mph 1016.1mb 69f
Sat 09/16 11:00pm 18 20 mph 1016.2mb 71f
10:00pm 17 18 mph 1016.3mb 71f
9:00pm 17 20 mph 1015.8mb 72f
8:00pm 17 20 mph 1015.4mb 71f